sensor_id;sensor_type;location;lat;lon;timestamp;P1;durP1;ratioP1;P2;durP2;ratioP2
84519;SDS011;74755;43.084;0.132;2024-01-15T00:00:41;11.85;;;6.10;;
84519;SDS011;74755;43.084;0.132;2024-01-15T00:03:08;6.38;;;4.10;;
84519;SDS011;74755;43.084;0.132;2024-01-15T00:05:35;4.88;;;3.58;;
84519;SDS011;74755;43.084;0.132;2024-01-15T00:08:01;6.47;;;3.95;;
84519;SDS011;74755;43.084;0.132;2024-01-15T00:10:27;7.18;;;3.15;;
84519;SDS011;74755;43.084;0.132;2024-01-15T00:12:53;9.13;;;2.10;;
84519;SDS011;74755;43.084;0.132;2024-01-15T00:15:19;5.53;;;2.25;;
84519;SDS011;74755;43.084;0.132;2024-01-15T00:17:45;9.90;;;2.30;;
84519;SDS011;74755;43.084;0.132;2024-01-15T00:20:11;3.33;;;1.40;;
84519;SDS011;74755;43.084;0.132;2024-01-15T00:22:37;5.00;;;1.50;;
84519;SDS011;74755;43.084;0.132;2024-01-15T00:25:03;1.00;;;0.68;;
84519;SDS011;74755;43.084;0.132;2024-01-15T00:27:30;2.40;;;0.90;;
84519;SDS011;74755;43.084;0.132;2024-01-15T00:29:56;1.48;;;0.90;;
84519;SDS011;74755;43.084;0.132;2024-01-15T00:32:22;1.10;;;0.73;;
84519;SDS011;74755;43.084;0.132;2024-01-15T00:34:48;5.13;;;1.65;;
84519;SDS011;74755;43.084;0.132;2024-01-15T00:37:14;11.90;;;4.97;;
84519;SDS011;74755;43.084;0.132;2024-01-15T00:39:40;11.98;;;4.05;;
84519;SDS011;74755;43.084;0.132;2024-01-15T00:42:06;6.60;;;3.28;;
84519;SDS011;74755;43.084;0.132;2024-01-15T00:44:32;10.43;;;3.55;;
84519;SDS011;74755;43.084;0.132;2024-01-15T00:46:58;10.32;;;2.50;;
84519;SDS011;74755;43.084;0.132;2024-01-15T00:49:24;5.55;;;2.67;;
84519;SDS011;74755;43.084;0.132;2024-01-15T00:51:50;6.10;;;3.35;;
84519;SDS011;74755;43.084;0.132;2024-01-15T00:54:16;7.53;;;3.80;;
84519;SDS011;74755;43.084;0.132;2024-01-15T00:56:42;4.05;;;1.40;;
84519;SDS011;74755;43.084;0.132;2024-01-15T00:59:08;4.82;;;1.13;;
84519;SDS011;74755;43.084;0.132;2024-01-15T01:01:35;11.68;;;1.20;;
84519;SDS011;74755;43.084;0.132;2024-01-15T01:04:03;2.75;;;1.52;;
84519;SDS011;74755;43.084;0.132;2024-01-15T01:06:29;1.52;;;0.85;;
84519;SDS011;74755;43.084;0.132;2024-01-15T01:08:55;5.07;;;1.65;;
84519;SDS011;74755;43.084;0.132;2024-01-15T01:11:21;1.95;;;1.20;;
84519;SDS011;74755;43.084;0.132;2024-01-15T01:13:47;2.78;;;0.98;;
84519;SDS011;74755;43.084;0.132;2024-01-15T01:16:13;7.78;;;1.00;;
84519;SDS011;74755;43.084;0.132;2024-01-15T01:18:39;2.58;;;1.73;;
84519;SDS011;74755;43.084;0.132;2024-01-15T01:21:05;2.40;;;1.30;;
84519;SDS011;74755;43.084;0.132;2024-01-15T01:23:31;6.15;;;1.75;;
84519;SDS011;74755;43.084;0.132;2024-01-15T01:25:57;2.90;;;1.67;;
84519;SDS011;74755;43.084;0.132;2024-01-15T01:28:23;5.82;;;2.13;;
84519;SDS011;74755;43.084;0.132;2024-01-15T01:30:49;10.10;;;2.20;;
84519;SDS011;74755;43.084;0.132;2024-01-15T01:33:15;7.28;;;2.20;;
84519;SDS011;74755;43.084;0.132;2024-01-15T01:35:41;1.92;;;1.45;;
84519;SDS011;74755;43.084;0.132;2024-01-15T01:38:08;4.78;;;2.03;;
84519;SDS011;74755;43.084;0.132;2024-01-15T01:40:34;6.05;;;1.92;;
84519;SDS011;74755;43.084;0.132;2024-01-15T01:43:02;3.22;;;1.80;;
84519;SDS011;74755;43.084;0.132;2024-01-15T01:45:28;5.97;;;1.77;;
84519;SDS011;74755;43.084;0.132;2024-01-15T01:47:54;3.03;;;1.38;;
84519;SDS011;74755;43.084;0.132;2024-01-15T01:50:20;6.88;;;1.30;;
84519;SDS011;74755;43.084;0.132;2024-01-15T01:52:47;7.30;;;2.00;;
84519;SDS011;74755;43.084;0.132;2024-01-15T01:55:14;6.55;;;2.00;;
84519;SDS011;74755;43.084;0.132;2024-01-15T01:57:40;2.63;;;1.30;;
84519;SDS011;74755;43.084;0.132;2024-01-15T02:00:06;1.58;;;1.08;;
84519;SDS011;74755;43.084;0.132;2024-01-15T02:02:32;2.28;;;1.40;;
84519;SDS011;74755;43.084;0.132;2024-01-15T02:04:59;3.40;;;1.25;;
84519;SDS011;74755;43.084;0.132;2024-01-15T02:07:25;3.25;;;1.50;;
84519;SDS011;74755;43.084;0.132;2024-01-15T02:09:51;7.53;;;2.63;;
84519;SDS011;74755;43.084;0.132;2024-01-15T02:12:17;5.18;;;1.48;;
84519;SDS011;74755;43.084;0.132;2024-01-15T02:14:43;3.45;;;1.20;;
84519;SDS011;74755;43.084;0.132;2024-01-15T02:17:09;5.65;;;2.15;;
84519;SDS011;74755;43.084;0.132;2024-01-15T02:19:35;8.73;;;1.60;;
84519;SDS011;74755;43.084;0.132;2024-01-15T02:22:01;1.80;;;1.15;;
84519;SDS011;74755;43.084;0.132;2024-01-15T02:24:27;2.90;;;1.10;;
84519;SDS011;74755;43.084;0.132;2024-01-15T02:26:53;3.05;;;1.38;;
84519;SDS011;74755;43.084;0.132;2024-01-15T02:29:19;6.18;;;2.60;;
84519;SDS011;74755;43.084;0.132;2024-01-15T02:31:45;7.50;;;2.95;;
84519;SDS011;74755;43.084;0.132;2024-01-15T02:34:11;8.13;;;3.03;;
84519;SDS011;74755;43.084;0.132;2024-01-15T02:36:37;6.47;;;3.03;;
84519;SDS011;74755;43.084;0.132;2024-01-15T02:39:03;8.57;;;3.40;;
84519;SDS011;74755;43.084;0.132;2024-01-15T02:41:30;8.52;;;3.47;;
84519;SDS011;74755;43.084;0.132;2024-01-15T02:43:56;3.92;;;2.40;;
84519;SDS011;74755;43.084;0.132;2024-01-15T02:46:22;12.52;;;3.15;;
84519;SDS011;74755;43.084;0.132;2024-01-15T02:48:48;9.70;;;2.10;;
84519;SDS011;74755;43.084;0.132;2024-01-15T02:51:14;6.25;;;1.77;;
84519;SDS011;74755;43.084;0.132;2024-01-15T02:53:40;3.75;;;1.65;;
84519;SDS011;74755;43.084;0.132;2024-01-15T02:56:06;4.28;;;1.50;;
84519;SDS011;74755;43.084;0.132;2024-01-15T02:58:32;7.57;;;1.27;;
84519;SDS011;74755;43.084;0.132;2024-01-15T03:00:58;17.23;;;1.73;;
84519;SDS011;74755;43.084;0.132;2024-01-15T03:03:24;5.05;;;1.00;;
84519;SDS011;74755;43.084;0.132;2024-01-15T03:05:51;8.93;;;1.15;;
84519;SDS011;74755;43.084;0.132;2024-01-15T03:08:17;11.15;;;1.50;;
84519;SDS011;74755;43.084;0.132;2024-01-15T03:10:43;2.25;;;1.30;;
84519;SDS011;74755;43.084;0.132;2024-01-15T03:13:09;2.92;;;1.23;;
84519;SDS011;74755;43.084;0.132;2024-01-15T03:15:35;72.95;;;6.35;;
84519;SDS011;74755;43.084;0.132;2024-01-15T03:18:01;10.65;;;1.70;;
84519;SDS011;74755;43.084;0.132;2024-01-15T03:20:27;4.70;;;0.90;;
84519;SDS011;74755;43.084;0.132;2024-01-15T03:22:53;2.33;;;1.10;;
84519;SDS011;74755;43.084;0.132;2024-01-15T03:25:19;1.42;;;0.90;;
84519;SDS011;74755;43.084;0.132;2024-01-15T03:27:45;5.03;;;1.05;;
84519;SDS011;74755;43.084;0.132;2024-01-15T03:30:11;1.10;;;0.80;;
84519;SDS011;74755;43.084;0.132;2024-01-15T03:32:37;5.35;;;1.90;;
84519;SDS011;74755;43.084;0.132;2024-01-15T03:35:04;10.30;;;1.08;;
84519;SDS011;74755;43.084;0.132;2024-01-15T03:37:30;1.98;;;0.90;;
84519;SDS011;74755;43.084;0.132;2024-01-15T03:39:56;1.95;;;0.70;;
84519;SDS011;74755;43.084;0.132;2024-01-15T03:42:22;2.85;;;1.20;;
84519;SDS011;74755;43.084;0.132;2024-01-15T03:44:48;4.82;;;1.23;;
84519;SDS011;74755;43.084;0.132;2024-01-15T03:47:14;7.53;;;1.45;;
84519;SDS011;74755;43.084;0.132;2024-01-15T03:49:40;1.88;;;1.00;;
84519;SDS011;74755;43.084;0.132;2024-01-15T03:52:06;5.18;;;0.95;;
84519;SDS011;74755;43.084;0.132;2024-01-15T03:54:32;4.47;;;0.70;;
84519;SDS011;74755;43.084;0.132;2024-01-15T03:56:58;1.83;;;0.70;;
84519;SDS011;74755;43.084;0.132;2024-01-15T03:59:24;3.67;;;0.70;;
84519;SDS011;74755;43.084;0.132;2024-01-15T04:01:50;2.40;;;0.90;;
84519;SDS011;74755;43.084;0.132;2024-01-15T04:04:17;1.88;;;0.73;;
84519;SDS011;74755;43.084;0.132;2024-01-15T04:06:43;1.77;;;0.80;;
84519;SDS011;74755;43.084;0.132;2024-01-15T04:09:09;7.53;;;1.38;;
84519;SDS011;74755;43.084;0.132;2024-01-15T04:11:35;176.30;;;8.65;;
84519;SDS011;74755;43.084;0.132;2024-01-15T04:14:01;64.50;;;5.13;;
84519;SDS011;74755;43.084;0.132;2024-01-15T04:16:27;5.95;;;0.90;;
84519;SDS011;74755;43.084;0.132;2024-01-15T04:18:54;5.93;;;1.17;;
84519;SDS011;74755;43.084;0.132;2024-01-15T04:21:20;2.38;;;1.25;;
84519;SDS011;74755;43.084;0.132;2024-01-15T04:23:46;4.15;;;1.05;;
84519;SDS011;74755;43.084;0.132;2024-01-15T04:26:12;2.85;;;0.70;;
84519;SDS011;74755;43.084;0.132;2024-01-15T04:28:38;1.23;;;0.73;;
84519;SDS011;74755;43.084;0.132;2024-01-15T04:31:04;5.03;;;1.02;;
84519;SDS011;74755;43.084;0.132;2024-01-15T04:33:30;2.67;;;0.85;;
84519;SDS011;74755;43.084;0.132;2024-01-15T04:35:56;3.85;;;0.82;;
84519;SDS011;74755;43.084;0.132;2024-01-15T04:38:22;1.13;;;0.80;;
84519;SDS011;74755;43.084;0.132;2024-01-15T04:40:48;3.40;;;0.80;;
84519;SDS011;74755;43.084;0.132;2024-01-15T04:43:14;2.08;;;0.50;;
84519;SDS011;74755;43.084;0.132;2024-01-15T04:45:40;1.35;;;0.63;;
84519;SDS011;74755;43.084;0.132;2024-01-15T04:48:06;2.83;;;0.82;;
84519;SDS011;74755;43.084;0.132;2024-01-15T04:50:32;3.85;;;1.02;;
84519;SDS011;74755;43.084;0.132;2024-01-15T04:52:58;8.10;;;0.82;;
84519;SDS011;74755;43.084;0.132;2024-01-15T04:55:24;2.28;;;0.75;;
84519;SDS011;74755;43.084;0.132;2024-01-15T04:57:50;4.55;;;1.27;;
84519;SDS011;74755;43.084;0.132;2024-01-15T05:00:16;4.22;;;0.90;;
84519;SDS011;74755;43.084;0.132;2024-01-15T05:02:43;2.72;;;0.70;;
84519;SDS011;74755;43.084;0.132;2024-01-15T05:05:09;0.98;;;0.50;;
84519;SDS011;74755;43.084;0.132;2024-01-15T05:07:35;4.03;;;0.70;;
84519;SDS011;74755;43.084;0.132;2024-01-15T05:10:01;1.75;;;0.57;;
84519;SDS011;74755;43.084;0.132;2024-01-15T05:12:27;2.72;;;0.60;;
84519;SDS011;74755;43.084;0.132;2024-01-15T05:14:53;2.47;;;0.50;;
84519;SDS011;74755;43.084;0.132;2024-01-15T05:17:19;2.88;;;0.60;;
84519;SDS011;74755;43.084;0.132;2024-01-15T05:19:45;2.45;;;0.55;;
84519;SDS011;74755;43.084;0.132;2024-01-15T05:22:12;2.72;;;0.70;;
84519;SDS011;74755;43.084;0.132;2024-01-15T05:24:38;3.28;;;0.80;;
84519;SDS011;74755;43.084;0.132;2024-01-15T05:27:04;1.70;;;0.75;;
84519;SDS011;74755;43.084;0.132;2024-01-15T05:29:30;0.98;;;0.70;;
84519;SDS011;74755;43.084;0.132;2024-01-15T05:31:56;2.15;;;0.73;;
84519;SDS011;74755;43.084;0.132;2024-01-15T05:34:22;1.95;;;0.63;;
84519;SDS011;74755;43.084;0.132;2024-01-15T05:36:48;4.50;;;0.60;;
84519;SDS011;74755;43.084;0.132;2024-01-15T05:39:14;6.43;;;0.70;;
84519;SDS011;74755;43.084;0.132;2024-01-15T05:41:40;5.20;;;0.60;;
84519;SDS011;74755;43.084;0.132;2024-01-15T05:44:06;2.50;;;0.60;;
84519;SDS011;74755;43.084;0.132;2024-01-15T05:46:32;5.05;;;0.90;;
84519;SDS011;74755;43.084;0.132;2024-01-15T05:48:58;3.28;;;0.95;;
84519;SDS011;74755;43.084;0.132;2024-01-15T05:51:24;4.47;;;0.85;;
84519;SDS011;74755;43.084;0.132;2024-01-15T05:53:50;4.18;;;0.80;;
84519;SDS011;74755;43.084;0.132;2024-01-15T05:56:16;3.28;;;1.20;;
84519;SDS011;74755;43.084;0.132;2024-01-15T05:58:42;2.95;;;0.60;;
84519;SDS011;74755;43.084;0.132;2024-01-15T06:01:09;5.18;;;0.90;;
84519;SDS011;74755;43.084;0.132;2024-01-15T06:03:35;4.60;;;1.48;;
84519;SDS011;74755;43.084;0.132;2024-01-15T06:06:01;16.92;;;2.00;;
84519;SDS011;74755;43.084;0.132;2024-01-15T06:08:27;3.38;;;1.00;;
84519;SDS011;74755;43.084;0.132;2024-01-15T06:10:53;4.50;;;1.38;;
84519;SDS011;74755;43.084;0.132;2024-01-15T06:13:21;6.85;;;1.10;;
84519;SDS011;74755;43.084;0.132;2024-01-15T06:15:47;2.78;;;1.02;;
84519;SDS011;74755;43.084;0.132;2024-01-15T06:18:13;2.05;;;0.95;;
84519;SDS011;74755;43.084;0.132;2024-01-15T06:20:39;4.07;;;0.90;;
84519;SDS011;74755;43.084;0.132;2024-01-15T06:23:05;4.90;;;1.08;;
84519;SDS011;74755;43.084;0.132;2024-01-15T06:25:31;5.47;;;1.30;;
84519;SDS011;74755;43.084;0.132;2024-01-15T06:27:58;0.90;;;0.70;;
84519;SDS011;74755;43.084;0.132;2024-01-15T06:30:24;2.08;;;1.10;;
84519;SDS011;74755;43.084;0.132;2024-01-15T06:32:50;3.85;;;1.15;;
84519;SDS011;74755;43.084;0.132;2024-01-15T06:35:16;3.35;;;1.13;;
84519;SDS011;74755;43.084;0.132;2024-01-15T06:37:42;2.53;;;0.80;;
84519;SDS011;74755;43.084;0.132;2024-01-15T06:40:08;1.60;;;0.98;;
84519;SDS011;74755;43.084;0.132;2024-01-15T06:42:34;3.42;;;1.35;;
84519;SDS011;74755;43.084;0.132;2024-01-15T06:45:00;4.00;;;1.33;;
84519;SDS011;74755;43.084;0.132;2024-01-15T06:47:26;4.28;;;1.35;;
84519;SDS011;74755;43.084;0.132;2024-01-15T06:49:52;5.65;;;2.08;;
84519;SDS011;74755;43.084;0.132;2024-01-15T06:52:18;4.53;;;1.88;;
84519;SDS011;74755;43.084;0.132;2024-01-15T06:54:44;9.57;;;1.95;;
84519;SDS011;74755;43.084;0.132;2024-01-15T06:57:10;6.85;;;1.90;;
84519;SDS011;74755;43.084;0.132;2024-01-15T06:59:36;3.33;;;1.20;;
84519;SDS011;74755;43.084;0.132;2024-01-15T07:02:02;4.75;;;1.63;;
84519;SDS011;74755;43.084;0.132;2024-01-15T07:04:28;7.47;;;2.05;;
84519;SDS011;74755;43.084;0.132;2024-01-15T07:06:54;3.47;;;1.90;;
84519;SDS011;74755;43.084;0.132;2024-01-15T07:09:21;3.45;;;2.15;;
84519;SDS011;74755;43.084;0.132;2024-01-15T07:11:47;3.95;;;1.88;;
84519;SDS011;74755;43.084;0.132;2024-01-15T07:14:13;9.20;;;1.80;;
84519;SDS011;74755;43.084;0.132;2024-01-15T07:16:39;2.60;;;1.50;;
84519;SDS011;74755;43.084;0.132;2024-01-15T07:19:06;3.38;;;1.70;;
84519;SDS011;74755;43.084;0.132;2024-01-15T07:21:32;32.30;;;10.55;;
84519;SDS011;74755;43.084;0.132;2024-01-15T07:23:58;14.23;;;4.70;;
84519;SDS011;74755;43.084;0.132;2024-01-15T07:26:24;7.35;;;3.40;;
84519;SDS011;74755;43.084;0.132;2024-01-15T07:28:51;7.25;;;2.00;;
84519;SDS011;74755;43.084;0.132;2024-01-15T07:31:17;7.07;;;2.20;;
84519;SDS011;74755;43.084;0.132;2024-01-15T07:33:43;8.63;;;1.08;;
84519;SDS011;74755;43.084;0.132;2024-01-15T07:36:09;6.13;;;1.92;;
84519;SDS011;74755;43.084;0.132;2024-01-15T07:38:36;6.95;;;3.88;;
84519;SDS011;74755;43.084;0.132;2024-01-15T07:41:02;54.90;;;19.58;;
84519;SDS011;74755;43.084;0.132;2024-01-15T07:43:28;22.98;;;8.95;;
84519;SDS011;74755;43.084;0.132;2024-01-15T07:45:55;81.07;;;33.20;;
84519;SDS011;74755;43.084;0.132;2024-01-15T07:48:21;21.83;;;5.43;;
84519;SDS011;74755;43.084;0.132;2024-01-15T07:50:47;14.80;;;5.25;;
84519;SDS011;74755;43.084;0.132;2024-01-15T07:53:13;20.20;;;9.13;;
84519;SDS011;74755;43.084;0.132;2024-01-15T07:55:39;12.98;;;4.55;;
84519;SDS011;74755;43.084;0.132;2024-01-15T07:58:05;13.88;;;5.45;;
84519;SDS011;74755;43.084;0.132;2024-01-15T08:00:31;63.90;;;24.50;;
84519;SDS011;74755;43.084;0.132;2024-01-15T08:02:57;122.63;;;38.90;;
84519;SDS011;74755;43.084;0.132;2024-01-15T08:05:23;36.53;;;11.48;;
84519;SDS011;74755;43.084;0.132;2024-01-15T08:07:49;19.45;;;7.60;;
84519;SDS011;74755;43.084;0.132;2024-01-15T08:10:15;61.63;;;22.55;;
84519;SDS011;74755;43.084;0.132;2024-01-15T08:12:41;110.45;;;35.60;;
84519;SDS011;74755;43.084;0.132;2024-01-15T08:15:08;153.65;;;43.35;;
84519;SDS011;74755;43.084;0.132;2024-01-15T08:17:34;157.18;;;47.45;;
84519;SDS011;74755;43.084;0.132;2024-01-15T08:20:00;74.82;;;26.85;;
84519;SDS011;74755;43.084;0.132;2024-01-15T08:22:26;25.83;;;10.30;;
84519;SDS011;74755;43.084;0.132;2024-01-15T08:24:52;23.30;;;9.82;;
84519;SDS011;74755;43.084;0.132;2024-01-15T08:27:20;108.65;;;46.17;;
84519;SDS011;74755;43.084;0.132;2024-01-15T08:29:46;4.72;;;1.30;;
84519;SDS011;74755;43.084;0.132;2024-01-15T08:32:12;6.63;;;1.60;;
84519;SDS011;74755;43.084;0.132;2024-01-15T08:34:40;9.77;;;3.55;;
84519;SDS011;74755;43.084;0.132;2024-01-15T08:37:08;40.78;;;18.75;;
84519;SDS011;74755;43.084;0.132;2024-01-15T08:39:34;17.75;;;9.50;;
84519;SDS011;74755;43.084;0.132;2024-01-15T08:42:03;24.38;;;12.30;;
84519;SDS011;74755;43.084;0.132;2024-01-15T08:44:29;18.80;;;9.00;;
84519;SDS011;74755;43.084;0.132;2024-01-15T08:46:55;15.20;;;8.02;;
84519;SDS011;74755;43.084;0.132;2024-01-15T08:49:21;10.50;;;4.97;;
84519;SDS011;74755;43.084;0.132;2024-01-15T08:51:47;3.78;;;0.80;;
84519;SDS011;74755;43.084;0.132;2024-01-15T08:54:13;5.30;;;1.88;;
84519;SDS011;74755;43.084;0.132;2024-01-15T08:56:39;3.97;;;1.20;;
84519;SDS011;74755;43.084;0.132;2024-01-15T08:59:06;4.65;;;0.80;;
84519;SDS011;74755;43.084;0.132;2024-01-15T09:01:32;4.00;;;2.22;;
84519;SDS011;74755;43.084;0.132;2024-01-15T09:03:58;6.45;;;2.03;;
84519;SDS011;74755;43.084;0.132;2024-01-15T09:06:24;3.38;;;2.20;;
84519;SDS011;74755;43.084;0.132;2024-01-15T09:08:50;4.10;;;2.13;;
84519;SDS011;74755;43.084;0.132;2024-01-15T09:11:16;5.40;;;2.08;;
84519;SDS011;74755;43.084;0.132;2024-01-15T09:13:42;5.32;;;1.70;;
84519;SDS011;74755;43.084;0.132;2024-01-15T09:16:08;4.78;;;3.03;;
84519;SDS011;74755;43.084;0.132;2024-01-15T09:18:34;4.82;;;1.98;;
84519;SDS011;74755;43.084;0.132;2024-01-15T09:21:01;2.38;;;1.92;;
84519;SDS011;74755;43.084;0.132;2024-01-15T09:23:27;6.10;;;2.10;;
84519;SDS011;74755;43.084;0.132;2024-01-15T09:25:53;3.78;;;1.80;;
84519;SDS011;74755;43.084;0.132;2024-01-15T09:28:19;4.13;;;2.20;;
84519;SDS011;74755;43.084;0.132;2024-01-15T09:30:45;4.85;;;2.33;;
84519;SDS011;74755;43.084;0.132;2024-01-15T09:33:12;4.18;;;2.38;;
84519;SDS011;74755;43.084;0.132;2024-01-15T09:35:38;3.67;;;1.50;;
84519;SDS011;74755;43.084;0.132;2024-01-15T09:38:04;4.43;;;1.85;;
84519;SDS011;74755;43.084;0.132;2024-01-15T09:40:31;2.45;;;1.05;;
84519;SDS011;74755;43.084;0.132;2024-01-15T09:43:00;5.40;;;1.45;;
84519;SDS011;74755;43.084;0.132;2024-01-15T09:45:27;1.95;;;0.90;;
84519;SDS011;74755;43.084;0.132;2024-01-15T09:47:54;1.95;;;0.80;;
84519;SDS011;74755;43.084;0.132;2024-01-15T09:50:20;3.50;;;1.10;;
84519;SDS011;74755;43.084;0.132;2024-01-15T09:52:46;4.95;;;1.50;;
84519;SDS011;74755;43.084;0.132;2024-01-15T09:55:12;2.90;;;1.70;;
84519;SDS011;74755;43.084;0.132;2024-01-15T09:57:40;4.68;;;2.35;;
84519;SDS011;74755;43.084;0.132;2024-01-15T10:00:07;9.13;;;4.20;;
84519;SDS011;74755;43.084;0.132;2024-01-15T10:02:35;8.05;;;2.78;;
84519;SDS011;74755;43.084;0.132;2024-01-15T10:05:02;6.75;;;2.53;;
84519;SDS011;74755;43.084;0.132;2024-01-15T10:07:28;7.07;;;2.80;;
84519;SDS011;74755;43.084;0.132;2024-01-15T10:09:55;4.63;;;2.50;;
84519;SDS011;74755;43.084;0.132;2024-01-15T10:12:24;5.43;;;2.28;;
84519;SDS011;74755;43.084;0.132;2024-01-15T10:14:52;6.03;;;2.80;;
84519;SDS011;74755;43.084;0.132;2024-01-15T10:17:18;3.67;;;2.50;;
84519;SDS011;74755;43.084;0.132;2024-01-15T10:19:47;3.53;;;1.95;;
84519;SDS011;74755;43.084;0.132;2024-01-15T10:22:14;2.47;;;1.80;;
84519;SDS011;74755;43.084;0.132;2024-01-15T10:24:41;5.05;;;1.75;;
84519;SDS011;74755;43.084;0.132;2024-01-15T10:27:07;1.40;;;1.10;;
84519;SDS011;74755;43.084;0.132;2024-01-15T10:29:34;3.05;;;0.75;;
84519;SDS011;74755;43.084;0.132;2024-01-15T10:32:00;3.53;;;1.10;;
84519;SDS011;74755;43.084;0.132;2024-01-15T10:34:26;4.45;;;1.10;;
84519;SDS011;74755;43.084;0.132;2024-01-15T10:36:52;2.05;;;1.00;;
84519;SDS011;74755;43.084;0.132;2024-01-15T10:39:21;2.50;;;1.00;;
84519;SDS011;74755;43.084;0.132;2024-01-15T10:41:47;4.03;;;0.98;;
84519;SDS011;74755;43.084;0.132;2024-01-15T10:44:13;2.80;;;0.98;;
84519;SDS011;74755;43.084;0.132;2024-01-15T10:46:39;3.05;;;0.80;;
84519;SDS011;74755;43.084;0.132;2024-01-15T10:49:05;2.20;;;0.68;;
84519;SDS011;74755;43.084;0.132;2024-01-15T10:51:31;2.58;;;0.93;;
84519;SDS011;74755;43.084;0.132;2024-01-15T10:53:58;2.88;;;0.70;;
84519;SDS011;74755;43.084;0.132;2024-01-15T10:56:25;2.30;;;1.00;;
84519;SDS011;74755;43.084;0.132;2024-01-15T10:58:53;3.42;;;0.98;;
84519;SDS011;74755;43.084;0.132;2024-01-15T11:01:20;1.75;;;1.08;;
84519;SDS011;74755;43.084;0.132;2024-01-15T11:03:46;3.58;;;3.17;;
84519;SDS011;74755;43.084;0.132;2024-01-15T11:06:16;3.95;;;1.90;;
84519;SDS011;74755;43.084;0.132;2024-01-15T11:08:44;4.07;;;2.13;;
84519;SDS011;74755;43.084;0.132;2024-01-15T11:11:11;4.22;;;3.30;;
84519;SDS011;74755;43.084;0.132;2024-01-15T11:16:04;9.50;;;6.45;;
84519;SDS011;74755;43.084;0.132;2024-01-15T11:18:31;8.15;;;4.68;;
84519;SDS011;74755;43.084;0.132;2024-01-15T11:23:43;1.50;;;1.00;;
84519;SDS011;74755;43.084;0.132;2024-01-15T11:28:56;3.28;;;0.93;;
84519;SDS011;74755;43.084;0.132;2024-01-15T11:31:29;4.63;;;0.85;;
84519;SDS011;74755;43.084;0.132;2024-01-15T11:33:55;1.35;;;0.63;;
84519;SDS011;74755;43.084;0.132;2024-01-15T11:36:35;1.33;;;0.70;;
84519;SDS011;74755;43.084;0.132;2024-01-15T11:41:53;2.50;;;1.20;;
84519;SDS011;74755;43.084;0.132;2024-01-15T11:44:20;1.30;;;0.95;;
84519;SDS011;74755;43.084;0.132;2024-01-15T11:46:49;1.27;;;0.85;;
84519;SDS011;74755;43.084;0.132;2024-01-15T11:51:54;1.48;;;0.85;;
84519;SDS011;74755;43.084;0.132;2024-01-15T11:54:21;4.22;;;2.08;;
84519;SDS011;74755;43.084;0.132;2024-01-15T11:56:49;4.30;;;2.20;;
84519;SDS011;74755;43.084;0.132;2024-01-15T11:59:15;6.78;;;3.35;;
84519;SDS011;74755;43.084;0.132;2024-01-15T12:01:41;5.75;;;2.65;;
84519;SDS011;74755;43.084;0.132;2024-01-15T12:04:08;6.72;;;3.85;;
84519;SDS011;74755;43.084;0.132;2024-01-15T12:06:34;6.63;;;3.33;;
84519;SDS011;74755;43.084;0.132;2024-01-15T12:09:07;5.40;;;2.97;;
84519;SDS011;74755;43.084;0.132;2024-01-15T12:11:34;4.20;;;2.38;;
84519;SDS011;74755;43.084;0.132;2024-01-15T12:14:01;3.70;;;2.25;;
84519;SDS011;74755;43.084;0.132;2024-01-15T12:16:27;2.95;;;2.25;;
84519;SDS011;74755;43.084;0.132;2024-01-15T12:18:53;7.25;;;3.60;;
84519;SDS011;74755;43.084;0.132;2024-01-15T12:21:19;7.95;;;3.60;;
84519;SDS011;74755;43.084;0.132;2024-01-15T12:23:46;5.18;;;3.40;;
84519;SDS011;74755;43.084;0.132;2024-01-15T12:26:13;4.93;;;3.28;;
84519;SDS011;74755;43.084;0.132;2024-01-15T12:28:39;2.95;;;2.00;;
84519;SDS011;74755;43.084;0.132;2024-01-15T12:31:05;2.95;;;2.05;;
84519;SDS011;74755;43.084;0.132;2024-01-15T12:33:32;5.28;;;1.88;;
84519;SDS011;74755;43.084;0.132;2024-01-15T12:35:59;4.45;;;2.05;;
84519;SDS011;74755;43.084;0.132;2024-01-15T12:38:25;3.00;;;2.30;;
84519;SDS011;74755;43.084;0.132;2024-01-15T12:40:51;3.22;;;1.90;;
84519;SDS011;74755;43.084;0.132;2024-01-15T12:43:17;5.78;;;2.63;;
84519;SDS011;74755;43.084;0.132;2024-01-15T12:45:43;3.20;;;2.38;;
84519;SDS011;74755;43.084;0.132;2024-01-15T12:48:10;3.75;;;2.42;;
84519;SDS011;74755;43.084;0.132;2024-01-15T12:50:36;2.97;;;2.10;;
84519;SDS011;74755;43.084;0.132;2024-01-15T12:53:02;5.15;;;3.00;;
84519;SDS011;74755;43.084;0.132;2024-01-15T12:55:28;5.35;;;2.30;;
84519;SDS011;74755;43.084;0.132;2024-01-15T12:57:54;3.95;;;2.60;;
84519;SDS011;74755;43.084;0.132;2024-01-15T13:00:20;4.88;;;2.70;;
84519;SDS011;74755;43.084;0.132;2024-01-15T13:02:46;6.07;;;2.00;;
84519;SDS011;74755;43.084;0.132;2024-01-15T13:05:14;4.85;;;2.95;;
84519;SDS011;74755;43.084;0.132;2024-01-15T13:07:42;3.22;;;2.22;;
84519;SDS011;74755;43.084;0.132;2024-01-15T13:10:08;2.95;;;1.92;;
84519;SDS011;74755;43.084;0.132;2024-01-15T13:12:35;3.72;;;2.63;;
84519;SDS011;74755;43.084;0.132;2024-01-15T13:15:01;13.48;;;8.13;;
84519;SDS011;74755;43.084;0.132;2024-01-15T13:17:30;12.63;;;7.28;;
84519;SDS011;74755;43.084;0.132;2024-01-15T13:19:56;8.15;;;3.63;;
84519;SDS011;74755;43.084;0.132;2024-01-15T13:22:22;11.30;;;4.70;;
84519;SDS011;74755;43.084;0.132;2024-01-15T13:24:49;5.90;;;3.50;;
84519;SDS011;74755;43.084;0.132;2024-01-15T13:27:15;15.43;;;6.50;;
84519;SDS011;74755;43.084;0.132;2024-01-15T13:29:42;14.23;;;8.05;;
84519;SDS011;74755;43.084;0.132;2024-01-15T13:32:08;14.82;;;6.57;;
84519;SDS011;74755;43.084;0.132;2024-01-15T13:34:36;12.55;;;6.38;;
84519;SDS011;74755;43.084;0.132;2024-01-15T13:37:02;13.10;;;6.55;;
84519;SDS011;74755;43.084;0.132;2024-01-15T13:39:28;13.13;;;6.43;;
84519;SDS011;74755;43.084;0.132;2024-01-15T13:41:58;9.60;;;5.07;;
84519;SDS011;74755;43.084;0.132;2024-01-15T13:44:24;18.00;;;9.05;;
84519;SDS011;74755;43.084;0.132;2024-01-15T13:46:50;20.55;;;9.68;;
84519;SDS011;74755;43.084;0.132;2024-01-15T13:49:17;5.57;;;2.42;;
84519;SDS011;74755;43.084;0.132;2024-01-15T13:51:43;6.45;;;3.78;;
84519;SDS011;74755;43.084;0.132;2024-01-15T13:54:09;2.83;;;1.65;;
84519;SDS011;74755;43.084;0.132;2024-01-15T13:56:36;9.30;;;7.93;;
84519;SDS011;74755;43.084;0.132;2024-01-15T13:59:02;7.75;;;5.45;;
84519;SDS011;74755;43.084;0.132;2024-01-15T14:01:29;5.85;;;5.18;;
84519;SDS011;74755;43.084;0.132;2024-01-15T14:03:55;4.07;;;3.30;;
84519;SDS011;74755;43.084;0.132;2024-01-15T14:06:22;6.65;;;3.15;;
84519;SDS011;74755;43.084;0.132;2024-01-15T14:08:49;4.05;;;2.38;;
84519;SDS011;74755;43.084;0.132;2024-01-15T14:11:15;3.08;;;1.48;;
84519;SDS011;74755;43.084;0.132;2024-01-15T14:13:44;1.85;;;1.20;;
84519;SDS011;74755;43.084;0.132;2024-01-15T14:16:10;8.23;;;5.22;;
84519;SDS011;74755;43.084;0.132;2024-01-15T14:18:36;25.85;;;15.80;;
84519;SDS011;74755;43.084;0.132;2024-01-15T14:21:03;20.85;;;11.45;;
84519;SDS011;74755;43.084;0.132;2024-01-15T14:23:29;6.03;;;2.70;;
84519;SDS011;74755;43.084;0.132;2024-01-15T14:25:56;3.83;;;2.17;;
84519;SDS011;74755;43.084;0.132;2024-01-15T14:28:22;4.07;;;1.80;;
84519;SDS011;74755;43.084;0.132;2024-01-15T14:30:48;1.65;;;1.15;;
84519;SDS011;74755;43.084;0.132;2024-01-15T14:33:14;1.48;;;0.80;;
84519;SDS011;74755;43.084;0.132;2024-01-15T14:35:40;4.53;;;1.10;;
84519;SDS011;74755;43.084;0.132;2024-01-15T14:38:06;1.33;;;0.55;;
84519;SDS011;74755;43.084;0.132;2024-01-15T14:40:32;1.77;;;0.40;;
84519;SDS011;74755;43.084;0.132;2024-01-15T14:42:58;1.10;;;0.95;;
84519;SDS011;74755;43.084;0.132;2024-01-15T14:45:24;2.05;;;0.70;;
84519;SDS011;74755;43.084;0.132;2024-01-15T14:47:52;1.92;;;0.40;;
84519;SDS011;74755;43.084;0.132;2024-01-15T14:50:18;3.17;;;0.20;;
84519;SDS011;74755;43.084;0.132;2024-01-15T14:52:44;2.33;;;0.47;;